Time;durP1;ratioP1;P1;durP2;ratioP2;P2;SDS_P1;SDS_P2;PMS_P1;PMS_P2;Temp;Humidity;BMP_temperature;BMP_pressure;BME280_temperature;BME280_humidity;BME280_pressure;Samples;Min_cycle;Max_cycle;Signal;HPM_P1;HPM_P2
2022/03/07 00:00:09;;;;;;;6.65;1.50;;;;;;;;;;5091634;28;20068;-68
2022/03/07 00:02:35;;;;;;;2.53;1.48;;;;;;;;;;5091507;28;20024;-66
2022/03/07 00:05:01;;;;;;;8.18;1.30;;;;;;;;;;5091625;28;20356;-67
2022/03/07 00:07:27;;;;;;;3.33;1.77;;;;;;;;;;5076252;28;20107;-67
2022/03/07 00:09:53;;;;;;;5.90;1.30;;;;;;;;;;5095555;28;20031;-67
2022/03/07 00:12:19;;;;;;;3.55;1.45;;;;;;;;;;5103058;28;20060;-67
2022/03/07 00:14:45;;;;;;;5.97;1.52;;;;;;;;;;5095206;28;20024;-67
2022/03/07 00:17:11;;;;;;;5.25;1.30;;;;;;;;;;5077222;28;20044;-67
2022/03/07 00:19:37;;;;;;;14.02;1.60;;;;;;;;;;5094817;28;20100;-67
2022/03/07 00:22:03;;;;;;;6.30;1.35;;;;;;;;;;5094560;28;20544;-67
2022/03/07 00:24:29;;;;;;;8.02;1.70;;;;;;;;;;5094972;28;20024;-67
2022/03/07 00:26:55;;;;;;;7.30;1.45;;;;;;;;;;5094744;28;20111;-66
2022/03/07 00:29:21;;;;;;;10.07;1.30;;;;;;;;;;5095038;28;20531;-66
2022/03/07 00:31:47;;;;;;;4.55;1.38;;;;;;;;;;5094882;28;20017;-66
2022/03/07 00:34:15;;;;;;;10.63;1.70;;;;;;;;;;5094753;28;20074;-67
2022/03/07 00:36:41;;;;;;;3.13;1.60;;;;;;;;;;5094645;28;20039;-67
2022/03/07 00:39:07;;;;;;;11.60;1.52;;;;;;;;;;5094668;28;20024;-67
2022/03/07 00:41:33;;;;;;;2.53;1.40;;;;;;;;;;5093875;28;20039;-67
2022/03/07 00:43:59;;;;;;;4.10;1.27;;;;;;;;;;5094239;28;20046;-68
2022/03/07 00:46:25;;;;;;;6.65;1.25;;;;;;;;;;5094448;28;20428;-68
2022/03/07 00:48:51;;;;;;;7.18;1.48;;;;;;;;;;5094325;28;20031;-68
2022/03/07 00:51:17;;;;;;;4.72;1.52;;;;;;;;;;5094402;28;20028;-67
2022/03/07 00:53:43;;;;;;;8.48;1.30;;;;;;;;;;5094712;28;20045;-67
2022/03/07 00:56:10;;;;;;;6.90;1.50;;;;;;;;;;5094508;28;20032;-67
2022/03/07 00:58:36;;;;;;;5.35;1.40;;;;;;;;;;5092940;28;20031;-67
2022/03/07 01:01:02;;;;;;;2.10;1.25;;;;;;;;;;5094006;28;20065;-67
2022/03/07 01:03:28;;;;;;;11.05;1.50;;;;;;;;;;5094233;28;20024;-65
2022/03/07 01:05:54;;;;;;;7.88;2.05;;;;;;;;;;5094259;28;20028;-66
2022/03/07 01:08:20;;;;;;;5.55;1.30;;;;;;;;;;5094215;28;20142;-66
2022/03/07 01:10:47;;;;;;;3.60;1.75;;;;;;;;;;5093520;28;20077;-65
2022/03/07 01:13:13;;;;;;;4.78;1.70;;;;;;;;;;5093324;28;20119;-67
2022/03/07 01:15:39;;;;;;;18.40;1.77;;;;;;;;;;5093794;28;20032;-67
2022/03/07 01:18:05;;;;;;;27.83;2.10;;;;;;;;;;5092634;28;20024;-67
2022/03/07 01:20:32;;;;;;;15.00;1.55;;;;;;;;;;5093731;28;20024;-66
2022/03/07 01:22:58;;;;;;;15.52;1.38;;;;;;;;;;5092965;28;20127;-66
2022/03/07 01:25:25;;;;;;;7.38;1.50;;;;;;;;;;5092969;28;20383;-67
2022/03/07 01:27:51;;;;;;;3.95;1.30;;;;;;;;;;5092802;28;20019;-67
2022/03/07 01:30:17;;;;;;;3.53;1.40;;;;;;;;;;5092934;28;20039;-67
2022/03/07 01:32:43;;;;;;;4.05;1.42;;;;;;;;;;5090323;28;20383;-67
2022/03/07 01:35:09;;;;;;;4.95;1.63;;;;;;;;;;5091982;28;20028;-67
2022/03/07 01:37:36;;;;;;;17.30;1.52;;;;;;;;;;5076195;28;20042;-67
2022/03/07 01:40:03;;;;;;;4.32;1.38;;;;;;;;;;5092769;28;20081;-67
2022/03/07 01:42:29;;;;;;;10.70;1.48;;;;;;;;;;5091088;28;20028;-67
2022/03/07 01:44:55;;;;;;;6.63;1.80;;;;;;;;;;5092657;28;20019;-68
2022/03/07 01:47:21;;;;;;;4.28;1.33;;;;;;;;;;5074813;28;20485;-68
2022/03/07 01:49:47;;;;;;;5.47;1.30;;;;;;;;;;5092621;28;20031;-68
2022/03/07 01:52:15;;;;;;;4.97;1.40;;;;;;;;;;5091459;28;20378;-67
2022/03/07 01:54:41;;;;;;;4.28;1.80;;;;;;;;;;5092511;28;20028;-67
2022/03/07 01:57:07;;;;;;;2.15;1.08;;;;;;;;;;5074604;28;20073;-67
2022/03/07 01:59:35;;;;;;;9.68;1.30;;;;;;;;;;5092359;28;20020;-68
2022/03/07 02:02:02;;;;;;;5.95;1.23;;;;;;;;;;5093008;28;20018;-68
2022/03/07 02:04:28;;;;;;;4.22;1.55;;;;;;;;;;5092899;28;20024;-68
2022/03/07 02:06:54;;;;;;;2.78;1.17;;;;;;;;;;5092942;28;20032;-67
2022/03/07 02:09:20;;;;;;;3.65;1.30;;;;;;;;;;5092326;28;20020;-66
2022/03/07 02:11:46;;;;;;;4.07;1.20;;;;;;;;;;5092501;28;20032;-67
2022/03/07 02:14:17;;;;;;;4.05;1.50;;;;;;;;;;5074113;28;20360;-67
2022/03/07 02:16:43;;;;;;;3.20;1.52;;;;;;;;;;5092770;28;20040;-67
2022/03/07 02:19:09;;;;;;;3.65;1.20;;;;;;;;;;5093086;28;20016;-66
2022/03/07 02:21:36;;;;;;;6.55;1.50;;;;;;;;;;5092004;28;20039;-66
2022/03/07 02:24:02;;;;;;;1.30;1.13;;;;;;;;;;5092201;28;20483;-66
2022/03/07 02:26:29;;;;;;;2.13;1.00;;;;;;;;;;5092487;28;20027;-66
2022/03/07 02:28:55;;;;;;;3.10;1.30;;;;;;;;;;5092268;28;20024;-66
2022/03/07 02:31:21;;;;;;;2.95;1.45;;;;;;;;;;5091566;28;20024;-67
2022/03/07 02:33:48;;;;;;;3.25;1.33;;;;;;;;;;5092320;28;20028;-66
2022/03/07 02:36:13;;;;;;;2.05;1.17;;;;;;;;;;5074066;28;20039;-67
2022/03/07 02:38:39;;;;;;;2.38;1.10;;;;;;;;;;5092353;28;20028;-67
2022/03/07 02:41:05;;;;;;;2.28;1.17;;;;;;;;;;5091969;28;20040;-66
2022/03/07 02:43:31;;;;;;;3.45;1.27;;;;;;;;;;5092093;28;20054;-67
2022/03/07 02:45:58;;;;;;;2.10;1.23;;;;;;;;;;5092338;28;20028;-67
2022/03/07 02:48:25;;;;;;;1.98;1.17;;;;;;;;;;5092041;28;20024;-65
2022/03/07 02:50:51;;;;;;;4.60;1.50;;;;;;;;;;5092352;28;20024;-67
2022/03/07 02:53:17;;;;;;;1.88;1.13;;;;;;;;;;5092384;28;20063;-67
2022/03/07 02:55:43;;;;;;;2.33;1.17;;;;;;;;;;5092141;28;20028;-67
2022/03/07 02:58:09;;;;;;;4.38;1.40;;;;;;;;;;5092296;28;20035;-66
2022/03/07 03:00:35;;;;;;;2.42;1.20;;;;;;;;;;5092183;28;20515;-66
2022/03/07 03:03:01;;;;;;;4.07;1.02;;;;;;;;;;5090994;28;20028;-66
2022/03/07 03:05:27;;;;;;;2.83;1.10;;;;;;;;;;5091704;28;20081;-67
2022/03/07 03:07:53;;;;;;;1.70;0.98;;;;;;;;;;5059846;28;20032;-67
2022/03/07 03:10:20;;;;;;;5.10;1.20;;;;;;;;;;5091554;28;20458;-67
2022/03/07 03:12:46;;;;;;;3.70;1.20;;;;;;;;;;5091965;28;20023;-68
2022/03/07 03:15:13;;;;;;;2.03;1.02;;;;;;;;;;5092053;28;20032;-67
2022/03/07 03:17:40;;;;;;;3.20;1.20;;;;;;;;;;5092334;28;20130;-67
2022/03/07 03:20:06;;;;;;;2.45;1.00;;;;;;;;;;5091148;28;20024;-67
2022/03/07 03:22:32;;;;;;;1.60;0.90;;;;;;;;;;5092590;28;20048;-68
2022/03/07 03:24:58;;;;;;;3.08;1.20;;;;;;;;;;5073977;28;20016;-67
2022/03/07 03:27:24;;;;;;;2.22;1.10;;;;;;;;;;5092095;28;20089;-67
2022/03/07 03:29:50;;;;;;;1.77;0.93;;;;;;;;;;5091989;28;20024;-67
2022/03/07 03:32:16;;;;;;;2.80;1.30;;;;;;;;;;5073822;28;20040;-67
2022/03/07 03:34:42;;;;;;;4.75;1.42;;;;;;;;;;5091507;28;20455;-67
2022/03/07 03:37:08;;;;;;;2.47;1.27;;;;;;;;;;5091226;28;20050;-67
2022/03/07 03:39:34;;;;;;;2.58;1.17;;;;;;;;;;5100115;28;20107;-66
2022/03/07 03:42:00;;;;;;;2.53;1.20;;;;;;;;;;5093734;28;20434;-66
2022/03/07 03:44:26;;;;;;;1.75;1.00;;;;;;;;;;5095838;28;20070;-66
2022/03/07 03:46:52;;;;;;;2.55;1.30;;;;;;;;;;5095810;28;20024;-67
2022/03/07 03:49:18;;;;;;;4.65;1.33;;;;;;;;;;5095584;28;20521;-68
2022/03/07 03:51:44;;;;;;;1.10;1.00;;;;;;;;;;5095332;28;20024;-67
2022/03/07 03:54:10;;;;;;;3.47;1.30;;;;;;;;;;5095407;28;20085;-67
2022/03/07 03:56:37;;;;;;;2.63;1.15;;;;;;;;;;5103526;28;20450;-67
2022/03/07 03:59:03;;;;;;;4.00;1.13;;;;;;;;;;5095451;28;20090;-67
2022/03/07 04:01:28;;;;;;;6.63;1.35;;;;;;;;;;5094927;28;20356;-67
2022/03/07 04:03:54;;;;;;;2.72;1.00;;;;;;;;;;5077262;28;20505;-67
2022/03/07 04:06:20;;;;;;;2.28;1.10;;;;;;;;;;5095157;28;20053;-67
2022/03/07 04:08:50;;;;;;;2.85;1.00;;;;;;;;;;5094836;28;20028;-68
2022/03/07 04:11:16;;;;;;;1.83;1.02;;;;;;;;;;5095016;28;20016;-67
2022/03/07 04:13:42;;;;;;;2.67;1.15;;;;;;;;;;5095296;28;20028;-66
2022/03/07 04:16:10;;;;;;;2.45;1.20;;;;;;;;;;5094850;28;20383;-66
2022/03/07 04:18:36;;;;;;;5.40;0.90;;;;;;;;;;5094862;28;20021;-65
2022/03/07 04:21:02;;;;;;;4.07;1.17;;;;;;;;;;5102499;28;20035;-66
2022/03/07 04:23:28;;;;;;;3.35;1.20;;;;;;;;;;5080241;28;20032;-67
2022/03/07 04:25:54;;;;;;;2.00;1.10;;;;;;;;;;5095068;28;20111;-67
2022/03/07 04:28:20;;;;;;;1.73;1.10;;;;;;;;;;5095159;28;20396;-67
2022/03/07 04:30:46;;;;;;;2.67;1.13;;;;;;;;;;5094866;28;20111;-67
2022/03/07 04:33:12;;;;;;;3.38;0.88;;;;;;;;;;5094835;28;20053;-67
2022/03/07 04:35:38;;;;;;;2.42;1.15;;;;;;;;;;5094761;28;20450;-67
2022/03/07 04:38:04;;;;;;;2.08;1.02;;;;;;;;;;5094754;28;20043;-66
2022/03/07 04:40:30;;;;;;;1.10;1.00;;;;;;;;;;5094331;28;20047;-66
2022/03/07 04:42:56;;;;;;;1.92;1.20;;;;;;;;;;5076404;28;20093;-67
2022/03/07 04:45:22;;;;;;;2.50;1.27;;;;;;;;;;5094712;28;20489;-67
2022/03/07 04:47:48;;;;;;;5.93;1.35;;;;;;;;;;5094055;28;20085;-66
2022/03/07 04:50:14;;;;;;;1.30;1.10;;;;;;;;;;5094702;28;20024;-66
2022/03/07 04:52:42;;;;;;;2.90;1.00;;;;;;;;;;5094304;28;20016;-67
2022/03/07 04:55:09;;;;;;;3.83;1.42;;;;;;;;;;5094537;28;20068;-66
2022/03/07 04:57:35;;;;;;;2.20;1.08;;;;;;;;;;5094902;28;20032;-66
2022/03/07 05:00:01;;;;;;;1.63;1.02;;;;;;;;;;5094093;28;20057;-67
2022/03/07 05:02:27;;;;;;;2.65;1.10;;;;;;;;;;5094260;28;20098;-67
2022/03/07 05:04:53;;;;;;;2.88;1.10;;;;;;;;;;5094244;28;20028;-67
2022/03/07 05:07:19;;;;;;;3.97;1.02;;;;;;;;;;5076177;28;20039;-67
2022/03/07 05:09:45;;;;;;;2.10;1.10;;;;;;;;;;5093864;28;20363;-66
2022/03/07 05:12:11;;;;;;;2.30;1.13;;;;;;;;;;5093846;28;20027;-67
2022/03/07 05:14:37;;;;;;;1.20;0.90;;;;;;;;;;5093807;28;20379;-66
2022/03/07 05:17:03;;;;;;;1.70;0.95;;;;;;;;;;5094222;28;20034;-67
2022/03/07 05:19:29;;;;;;;2.47;1.02;;;;;;;;;;5075304;28;20028;-67
2022/03/07 05:21:55;;;;;;;1.80;1.00;;;;;;;;;;5093748;28;20119;-67
2022/03/07 05:24:21;;;;;;;1.65;1.30;;;;;;;;;;5094031;28;20111;-66
2022/03/07 05:26:47;;;;;;;3.22;1.10;;;;;;;;;;5093672;28;20135;-66
2022/03/07 05:29:14;;;;;;;2.65;1.40;;;;;;;;;;5075306;28;20115;-67
2022/03/07 05:31:40;;;;;;;3.53;1.20;;;;;;;;;;5093460;28;20024;-66
2022/03/07 05:34:06;;;;;;;1.92;1.20;;;;;;;;;;5093464;28;20024;-67
2022/03/07 05:36:32;;;;;;;3.25;1.40;;;;;;;;;;5074657;28;20042;-66
2022/03/07 05:38:58;;;;;;;1.00;0.90;;;;;;;;;;5093693;28;20024;-66
2022/03/07 05:41:23;;;;;;;1.02;0.93;;;;;;;;;;5093512;28;20077;-66
2022/03/07 05:43:49;;;;;;;1.13;1.00;;;;;;;;;;5093499;28;20366;-66
2022/03/07 05:46:16;;;;;;;1.48;1.08;;;;;;;;;;5075096;28;20031;-66
2022/03/07 05:48:42;;;;;;;1.45;1.00;;;;;;;;;;5093641;28;20016;-66
2022/03/07 05:51:08;;;;;;;3.30;1.33;;;;;;;;;;5093061;28;20028;-66
2022/03/07 05:53:34;;;;;;;1.65;1.10;;;;;;;;;;5093382;28;20092;-68
2022/03/07 05:56:00;;;;;;;1.13;1.00;;;;;;;;;;5092605;28;20089;-67
2022/03/07 05:58:26;;;;;;;1.48;0.90;;;;;;;;;;5093240;28;20027;-67
2022/03/07 06:00:52;;;;;;;1.00;0.82;;;;;;;;;;5085736;28;20505;-67
2022/03/07 06:03:18;;;;;;;1.50;1.00;;;;;;;;;;5074832;28;20028;-68
2022/03/07 06:05:44;;;;;;;1.55;0.90;;;;;;;;;;5092430;28;20032;-67
2022/03/07 06:08:10;;;;;;;1.50;1.00;;;;;;;;;;5074924;28;20479;-66
2022/03/07 06:10:36;;;;;;;1.45;1.10;;;;;;;;;;5092179;28;20024;-66
2022/03/07 06:13:02;;;;;;;1.48;1.10;;;;;;;;;;5092300;28;20046;-66
2022/03/07 06:15:28;;;;;;;2.13;1.10;;;;;;;;;;5073732;28;20043;-65
2022/03/07 06:17:55;;;;;;;2.15;1.05;;;;;;;;;;5092144;28;20024;-66
2022/03/07 06:20:23;;;;;;;1.40;1.08;;;;;;;;;;5090864;28;20036;-66
2022/03/07 06:22:49;;;;;;;2.00;1.02;;;;;;;;;;5091655;28;20130;-66
2022/03/07 06:25:15;;;;;;;1.30;0.85;;;;;;;;;;5091860;28;20030;-66
2022/03/07 06:27:42;;;;;;;1.33;1.13;;;;;;;;;;5097623;28;20024;-66
2022/03/07 06:30:08;;;;;;;1.67;1.00;;;;;;;;;;5091543;28;20085;-67
2022/03/07 06:32:35;;;;;;;2.60;1.52;;;;;;;;;;5091774;28;20035;-68
2022/03/07 06:35:01;;;;;;;9.25;1.90;;;;;;;;;;5091539;28;20020;-67
2022/03/07 06:37:27;;;;;;;2.72;1.98;;;;;;;;;;5087137;28;20116;-66
2022/03/07 06:39:53;;;;;;;7.28;1.85;;;;;;;;;;5076984;28;20103;-65
2022/03/07 06:42:19;;;;;;;26.13;2.17;;;;;;;;;;5073381;28;20035;-65
2022/03/07 06:44:45;;;;;;;12.77;1.98;;;;;;;;;;5090872;28;20036;-65
2022/03/07 06:47:11;;;;;;;26.90;3.13;;;;;;;;;;5090812;28;20032;-67
2022/03/07 06:49:39;;;;;;;20.92;2.38;;;;;;;;;;5091640;28;20041;-68
2022/03/07 06:52:05;;;;;;;26.83;2.47;;;;;;;;;;5091319;28;20116;-66
2022/03/07 06:54:31;;;;;;;35.72;2.65;;;;;;;;;;5092067;28;20031;-67
2022/03/07 06:56:57;;;;;;;27.05;2.50;;;;;;;;;;5091483;28;20421;-68
2022/03/07 06:59:23;;;;;;;17.88;1.90;;;;;;;;;;5091722;28;20056;-68
2022/03/07 07:01:49;;;;;;;11.80;2.30;;;;;;;;;;5090400;28;20024;-68
2022/03/07 07:04:15;;;;;;;32.13;3.65;;;;;;;;;;5091197;28;20054;-67
2022/03/07 07:06:41;;;;;;;9.95;2.05;;;;;;;;;;5091009;28;20023;-67
2022/03/07 07:09:07;;;;;;;19.20;2.90;;;;;;;;;;5090911;28;20028;-68
2022/03/07 07:11:33;;;;;;;10.57;1.83;;;;;;;;;;5091378;28;20039;-68
2022/03/07 07:13:59;;;;;;;18.40;2.55;;;;;;;;;;5073964;28;20158;-70
2022/03/07 07:16:25;;;;;;;13.10;2.20;;;;;;;;;;5075246;28;20094;-74
2022/03/07 07:18:51;;;;;;;7.57;2.10;;;;;;;;;;5096347;28;20039;-71
2022/03/07 07:21:17;;;;;;;15.60;2.50;;;;;;;;;;5077950;28;20356;-69
2022/03/07 07:23:43;;;;;;;13.18;2.28;;;;;;;;;;5096498;28;20028;-70
2022/03/07 07:26:10;;;;;;;13.88;2.33;;;;;;;;;;5095926;28;20028;-71
2022/03/07 07:28:37;;;;;;;8.93;2.15;;;;;;;;;;5096332;28;20039;-72
2022/03/07 07:31:03;;;;;;;11.38;2.72;;;;;;;;;;5078203;28;20066;-71
2022/03/07 07:33:29;;;;;;;13.90;3.05;;;;;;;;;;5096376;28;20467;-69
2022/03/07 07:35:55;;;;;;;13.55;2.40;;;;;;;;;;5061598;28;20032;-70
2022/03/07 07:38:24;;;;;;;6.60;2.10;;;;;;;;;;5096355;28;20048;-70
2022/03/07 07:40:50;;;;;;;8.68;2.50;;;;;;;;;;5096122;28;20032;-71
2022/03/07 07:43:16;;;;;;;7.47;2.60;;;;;;;;;;5096465;28;20027;-71
2022/03/07 07:45:43;;;;;;;7.78;2.40;;;;;;;;;;5102668;28;20655;-71
2022/03/07 07:48:09;;;;;;;8.90;2.40;;;;;;;;;;5095724;28;20464;-70
2022/03/07 07:50:34;;;;;;;5.72;2.40;;;;;;;;;;5078451;28;20024;-69
2022/03/07 07:53:01;;;;;;;10.40;3.05;;;;;;;;;;5077453;28;20197;-70
2022/03/07 07:55:27;;;;;;;5.72;2.13;;;;;;;;;;5095343;28;20531;-69
2022/03/07 07:57:52;;;;;;;2.85;2.30;;;;;;;;;;5095602;28;20032;-70
2022/03/07 08:00:20;;;;;;;4.25;2.40;;;;;;;;;;5095323;28;20027;-71
2022/03/07 08:02:47;;;;;;;7.20;2.85;;;;;;;;;;5095401;28;20439;-69
2022/03/07 08:05:14;;;;;;;8.55;2.47;;;;;;;;;;5095473;28;20028;-70
2022/03/07 08:07:41;;;;;;;8.25;2.33;;;;;;;;;;5095369;28;20024;-70
2022/03/07 08:10:07;;;;;;;4.68;2.45;;;;;;;;;;5095032;28;20107;-69
2022/03/07 08:12:33;;;;;;;8.20;2.35;;;;;;;;;;5095035;28;20129;-70
2022/03/07 08:14:59;;;;;;;4.07;2.45;;;;;;;;;;5095376;28;20134;-68
2022/03/07 08:17:25;;;;;;;3.22;2.50;;;;;;;;;;5072615;28;20059;-70
2022/03/07 08:19:53;;;;;;;6.25;2.30;;;;;;;;;;5098795;28;20020;-69
2022/03/07 08:22:19;;;;;;;8.45;2.40;;;;;;;;;;5094451;28;20047;-69
2022/03/07 08:24:45;;;;;;;3.10;2.30;;;;;;;;;;5077141;28;20024;-69
2022/03/07 08:27:11;;;;;;;4.63;2.60;;;;;;;;;;5094762;28;20078;-69
2022/03/07 08:29:37;;;;;;;4.93;2.15;;;;;;;;;;5096081;28;20064;-68
2022/03/07 08:32:04;;;;;;;3.15;2.25;;;;;;;;;;5075525;28;20051;-71
2022/03/07 08:34:31;;;;;;;7.55;2.70;;;;;;;;;;5076831;28;20028;-68
2022/03/07 08:36:57;;;;;;;4.07;2.40;;;;;;;;;;5095497;28;20032;-72
2022/03/07 08:39:23;;;;;;;2.90;2.00;;;;;;;;;;5095362;28;20097;-69
2022/03/07 08:41:49;;;;;;;6.78;2.30;;;;;;;;;;5076892;28;20024;-71
2022/03/07 08:44:15;;;;;;;7.40;2.65;;;;;;;;;;5095100;28;20042;-67
2022/03/07 08:46:41;;;;;;;6.90;2.70;;;;;;;;;;5094861;28;20023;-67
2022/03/07 08:49:07;;;;;;;6.55;2.60;;;;;;;;;;5094653;28;20063;-67
2022/03/07 08:51:33;;;;;;;7.68;2.75;;;;;;;;;;5094544;28;20059;-68
2022/03/07 08:53:59;;;;;;;6.45;2.20;;;;;;;;;;5094609;28;20043;-68
2022/03/07 08:56:25;;;;;;;11.85;2.60;;;;;;;;;;5094766;28;20119;-67
2022/03/07 08:58:51;;;;;;;7.00;2.17;;;;;;;;;;5094841;28;20020;-67
2022/03/07 09:01:18;;;;;;;9.77;2.25;;;;;;;;;;5094480;28;20032;-67
2022/03/07 09:03:45;;;;;;;7.28;2.50;;;;;;;;;;5094847;28;20023;-68
2022/03/07 09:06:11;;;;;;;4.07;2.20;;;;;;;;;;5094448;28;20082;-66
2022/03/07 09:08:37;;;;;;;4.15;2.00;;;;;;;;;;5094509;28;20735;-67
2022/03/07 09:11:03;;;;;;;5.72;2.10;;;;;;;;;;5094619;28;20118;-67
2022/03/07 09:13:29;;;;;;;4.53;2.10;;;;;;;;;;5094620;28;20109;-67
2022/03/07 09:15:55;;;;;;;3.70;2.05;;;;;;;;;;5094385;28;20059;-67
2022/03/07 09:18:22;;;;;;;4.25;2.20;;;;;;;;;;5094467;28;20024;-66
2022/03/07 09:20:48;;;;;;;4.53;1.80;;;;;;;;;;5075987;28;20031;-67
2022/03/07 09:23:14;;;;;;;4.13;2.20;;;;;;;;;;5093778;28;20052;-67
2022/03/07 09:25:41;;;;;;;3.83;1.83;;;;;;;;;;5075732;28;20060;-66
2022/03/07 09:28:07;;;;;;;3.65;1.90;;;;;;;;;;5094025;28;20031;-68
2022/03/07 09:30:33;;;;;;;4.88;1.77;;;;;;;;;;5076169;28;20024;-67
2022/03/07 09:33:03;;;;;;;6.72;2.25;;;;;;;;;;5075604;28;20028;-66
2022/03/07 09:35:29;;;;;;;5.88;2.10;;;;;;;;;;5093644;28;20483;-67
2022/03/07 09:37:55;;;;;;;3.60;2.17;;;;;;;;;;5093973;28;20038;-66
2022/03/07 09:40:21;;;;;;;2.72;1.83;;;;;;;;;;5092907;28;20027;-67
2022/03/07 09:42:47;;;;;;;5.05;1.85;;;;;;;;;;5093658;28;20074;-67
2022/03/07 09:45:13;;;;;;;2.10;1.75;;;;;;;;;;5093685;28;20056;-67
2022/03/07 09:47:40;;;;;;;5.63;1.83;;;;;;;;;;5093759;28;20031;-66
2022/03/07 09:50:08;;;;;;;4.15;1.90;;;;;;;;;;5093716;28;20024;-66
2022/03/07 09:52:35;;;;;;;4.78;2.25;;;;;;;;;;5093524;28;20491;-66
2022/03/07 09:55:01;;;;;;;3.10;1.80;;;;;;;;;;5093470;28;20078;-67
2022/03/07 09:57:27;;;;;;;2.25;2.05;;;;;;;;;;5093296;28;20046;-67
2022/03/07 09:59:53;;;;;;;2.95;1.95;;;;;;;;;;5092939;28;20020;-67
2022/03/07 10:02:24;;;;;;;2.45;2.10;;;;;;;;;;5093056;28;20043;-66
2022/03/07 10:04:50;;;;;;;3.08;1.65;;;;;;;;;;5093180;28;20051;-66
2022/03/07 10:07:16;;;;;;;4.90;2.05;;;;;;;;;;5075250;28;20069;-67
2022/03/07 10:09:42;;;;;;;2.50;1.88;;;;;;;;;;5093066;28;20022;-66
2022/03/07 10:12:09;;;;;;;2.88;1.63;;;;;;;;;;5074904;28;20367;-67
2022/03/07 10:14:44;;;;;;;2.50;1.67;;;;;;;;;;5092745;28;20115;-66
2022/03/07 10:17:17;;;;;;;2.78;1.77;;;;;;;;;;5093220;28;20031;-66
2022/03/07 10:19:44;;;;;;;3.58;1.73;;;;;;;;;;5073910;28;20433;-68
2022/03/07 10:22:13;;;;;;;1.92;1.67;;;;;;;;;;5092001;28;20101;-67
2022/03/07 10:24:39;;;;;;;5.40;1.88;;;;;;;;;;5092862;28;20028;-67
2022/03/07 10:27:05;;;;;;;2.80;1.75;;;;;;;;;;5093060;28;20371;-66
2022/03/07 10:29:32;;;;;;;3.63;1.60;;;;;;;;;;5092929;28;20075;-67
2022/03/07 10:31:59;;;;;;;2.78;1.77;;;;;;;;;;5092795;28;20059;-67
2022/03/07 10:34:26;;;;;;;2.20;1.95;;;;;;;;;;5093083;28;20020;-68
2022/03/07 10:36:53;;;;;;;2.25;1.60;;;;;;;;;;5092732;28;20040;-68
2022/03/07 10:39:24;;;;;;;2.00;1.67;;;;;;;;;;5092878;28;20017;-66
2022/03/07 10:41:50;;;;;;;3.63;1.73;;;;;;;;;;5092547;28;20020;-67
2022/03/07 10:44:27;;;;;;;2.08;1.70;;;;;;;;;;5092560;28;20027;-67
2022/03/07 10:46:53;;;;;;;2.97;2.03;;;;;;;;;;5092726;28;20374;-66
2022/03/07 10:49:19;;;;;;;3.38;1.85;;;;;;;;;;5092765;28;20063;-68
2022/03/07 10:51:52;;;;;;;2.33;1.83;;;;;;;;;;5074270;28;20028;-67
2022/03/07 10:54:19;;;;;;;2.10;1.88;;;;;;;;;;5074551;28;20020;-67
2022/03/07 10:57:03;;;;;;;2.67;1.80;;;;;;;;;;5074429;28;20040;-66
2022/03/07 10:59:31;;;;;;;2.75;2.17;;;;;;;;;;5092121;28;20024;-67
2022/03/07 11:02:06;;;;;;;2.30;2.00;;;;;;;;;;5092214;28;20035;-67
2022/03/07 11:04:33;;;;;;;3.40;1.92;;;;;;;;;;5092324;28;20016;-67
2022/03/07 11:06:59;;;;;;;2.63;1.77;;;;;;;;;;5092339;28;20020;-67
2022/03/07 11:09:25;;;;;;;2.03;1.73;;;;;;;;;;5092265;28;20024;-67
2022/03/07 11:11:51;;;;;;;2.88;1.70;;;;;;;;;;5073940;28;20020;-67
2022/03/07 11:14:18;;;;;;;5.53;1.85;;;;;;;;;;5074124;28;20472;-67
2022/03/07 11:16:45;;;;;;;2.25;1.70;;;;;;;;;;5074087;28;20081;-67
2022/03/07 11:19:12;;;;;;;1.90;1.67;;;;;;;;;;5072377;28;20032;-67
2022/03/07 11:21:40;;;;;;;1.92;1.55;;;;;;;;;;5080663;28;20036;-66
2022/03/07 11:24:06;;;;;;;3.63;2.03;;;;;;;;;;5092278;28;20077;-67
2022/03/07 11:26:32;;;;;;;2.72;1.60;;;;;;;;;;5091791;28;20024;-68
2022/03/07 11:28:58;;;;;;;1.90;1.70;;;;;;;;;;5091572;28;20027;-67
2022/03/07 11:31:26;;;;;;;2.42;1.85;;;;;;;;;;5091958;28;20036;-67
2022/03/07 11:33:52;;;;;;;1.70;1.60;;;;;;;;;;5092278;28;20075;-67
2022/03/07 11:36:20;;;;;;;1.92;1.58;;;;;;;;;;5091971;28;20044;-66
2022/03/07 11:38:53;;;;;;;2.03;1.70;;;;;;;;;;5091310;28;20032;-67
2022/03/07 11:41:19;;;;;;;;;;;;;;;;;;5092280;28;20038;-67
2022/03/07 11:43:49;;;;;;;1.80;1.67;;;;;;;;;;5091988;28;19991;-67
2022/03/07 11:46:23;;;;;;;2.25;1.70;;;;;;;;;;5091956;28;20058;-66
2022/03/07 11:48:49;;;;;;;1.60;1.40;;;;;;;;;;5092322;28;20020;-67
2022/03/07 11:51:16;;;;;;;2.05;1.85;;;;;;;;;;5091882;28;20024;-66
2022/03/07 11:53:43;;;;;;;1.65;1.48;;;;;;;;;;5092008;28;20522;-66
2022/03/07 11:56:15;;;;;;;1.70;1.60;;;;;;;;;;5091781;28;20039;-66
2022/03/07 11:58:48;;;;;;;1.67;1.52;;;;;;;;;;5092039;28;20476;-66
2022/03/07 12:01:14;;;;;;;2.20;1.65;;;;;;;;;;5091489;28;20031;-67
2022/03/07 12:03:40;;;;;;;1.90;1.70;;;;;;;;;;5095070;28;20153;-66
2022/03/07 12:06:11;;;;;;;1.95;1.70;;;;;;;;;;5095661;28;20039;-66
2022/03/07 12:08:44;;;;;;;1.60;1.50;;;;;;;;;;5095751;28;20047;-67
2022/03/07 12:11:10;;;;;;;;;;;;;;;;;;5077106;28;20027;-66
2022/03/07 12:13:46;;;;;;;2.20;1.80;;;;;;;;;;5078056;28;20264;-67
2022/03/07 12:16:12;;;;;;;2.90;1.98;;;;;;;;;;5075045;28;20387;-67
2022/03/07 12:18:38;;;;;;;1.83;1.60;;;;;;;;;;5091033;28;20162;-67
2022/03/07 12:21:04;;;;;;;1.95;1.60;;;;;;;;;;5095151;28;20260;-67
2022/03/07 12:23:34;;;;;;;2.08;1.75;;;;;;;;;;5095338;28;20036;-67
2022/03/07 12:26:08;;;;;;;2.10;1.67;;;;;;;;;;5095113;28;20032;-67
2022/03/07 12:28:35;;;;;;;2.45;1.58;;;;;;;;;;5095174;28;20078;-67
2022/03/07 12:31:02;;;;;;;2.65;1.50;;;;;;;;;;5094965;28;20032;-67
2022/03/07 12:33:28;;;;;;;1.83;1.60;;;;;;;;;;5095093;28;20119;-66
2022/03/07 12:36:07;;;;;;;1.83;1.58;;;;;;;;;;5094901;28;20028;-66
2022/03/07 12:38:33;;;;;;;1.60;1.50;;;;;;;;;;5095234;28;20020;-66
2022/03/07 12:40:59;;;;;;;1.50;1.40;;;;;;;;;;5094718;28;20031;-67
2022/03/07 12:43:26;;;;;;;1.92;1.67;;;;;;;;;;5094924;28;20024;-67
2022/03/07 12:45:56;;;;;;;2.42;1.70;;;;;;;;;;5094801;28;20052;-67
2022/03/07 12:48:23;;;;;;;1.63;1.50;;;;;;;;;;5095272;28;20016;-67
2022/03/07 12:50:49;;;;;;;1.50;1.40;;;;;;;;;;5094708;28;20027;-67
2022/03/07 12:53:15;;;;;;;1.95;1.52;;;;;;;;;;5094757;28;20103;-66
2022/03/07 12:55:41;;;;;;;1.73;1.60;;;;;;;;;;5094816;28;20146;-66
2022/03/07 12:58:07;;;;;;;1.65;1.55;;;;;;;;;;5094841;28;20024;-65
2022/03/07 13:00:34;;;;;;;1.90;1.70;;;;;;;;;;5076515;28;20546;-66
2022/03/07 13:03:03;;;;;;;2.13;1.73;;;;;;;;;;5094317;28;20023;-66
2022/03/07 13:05:29;;;;;;;2.72;1.65;;;;;;;;;;5094714;28;20027;-67
2022/03/07 13:07:55;;;;;;;2.28;1.63;;;;;;;;;;5076369;28;20032;-67
2022/03/07 13:10:23;;;;;;;1.52;1.42;;;;;;;;;;5094334;28;20028;-67
2022/03/07 13:12:49;;;;;;;1.92;1.60;;;;;;;;;;5094430;28;20024;-67
2022/03/07 13:15:15;;;;;;;1.98;1.70;;;;;;;;;;5093392;28;20199;-66
2022/03/07 13:17:42;;;;;;;2.42;1.70;;;;;;;;;;5094152;28;20498;-66
2022/03/07 13:20:10;;;;;;;2.47;1.50;;;;;;;;;;5093865;28;20065;-66
2022/03/07 13:22:36;;;;;;;2.15;1.95;;;;;;;;;;5093660;28;20040;-66
2022/03/07 13:25:04;;;;;;;1.90;1.70;;;;;;;;;;5094245;28;20081;-66
2022/03/07 13:27:30;;;;;;;2.15;1.90;;;;;;;;;;5094160;28;20055;-66
2022/03/07 13:30:07;;;;;;;1.70;1.60;;;;;;;;;;5093995;28;20027;-67
2022/03/07 13:32:39;;;;;;;2.53;1.75;;;;;;;;;;5093739;28;20058;-66
2022/03/07 13:35:06;;;;;;;1.70;1.60;;;;;;;;;;5093826;28;20058;-66
2022/03/07 13:37:42;;;;;;;2.83;1.80;;;;;;;;;;5093943;28;20034;-66
2022/03/07 13:40:10;;;;;;;2.70;1.83;;;;;;;;;;5093712;28;20031;-66
2022/03/07 13:42:47;;;;;;;1.88;1.70;;;;;;;;;;5093091;28;20098;-67
2022/03/07 13:45:14;;;;;;;2.03;1.60;;;;;;;;;;5093173;28;20490;-67
2022/03/07 13:47:40;;;;;;;3.78;1.70;;;;;;;;;;5093583;28;20024;-67
2022/03/07 13:50:06;;;;;;;1.73;1.63;;;;;;;;;;5093640;28;20074;-67
2022/03/07 13:52:35;;;;;;;2.00;1.80;;;;;;;;;;5093599;28;20062;-67
2022/03/07 13:55:02;;;;;;;2.08;1.58;;;;;;;;;;5093544;28;20020;-67
2022/03/07 13:57:48;;;;;;;1.63;1.40;;;;;;;;;;5093648;28;20028;-67
2022/03/07 14:00:19;;;;;;;3.70;2.05;;;;;;;;;;5093260;28;20110;-68
2022/03/07 14:02:48;;;;;;;2.53;1.50;;;;;;;;;;5093410;28;20092;-67
2022/03/07 14:05:15;;;;;;;2.00;1.80;;;;;;;;;;5093301;28;20238;-66
2022/03/07 14:07:42;;;;;;;1.35;1.25;;;;;;;;;;5093675;28;20078;-67
2022/03/07 14:10:11;;;;;;;2.30;1.90;;;;;;;;;;5092896;28;20063;-67
2022/03/07 14:12:38;;;;;;;1.42;1.33;;;;;;;;;;5092962;28;20024;-67
2022/03/07 14:15:11;;;;;;;1.75;1.65;;;;;;;;;;5093100;28;20036;-66
2022/03/07 14:17:38;;;;;;;1.65;1.55;;;;;;;;;;5093395;28;20089;-67
2022/03/07 14:20:06;;;;;;;1.65;1.50;;;;;;;;;;5093250;28;20036;-67
2022/03/07 14:22:32;;;;;;;1.70;1.48;;;;;;;;;;5092512;28;20517;-67
2022/03/07 14:24:58;;;;;;;3.75;1.60;;;;;;;;;;5079457;28;20495;-68
2022/03/07 14:27:26;;;;;;;1.52;1.42;;;;;;;;;;5072767;28;20029;-67
2022/03/07 14:29:52;;;;;;;1.85;1.60;;;;;;;;;;5072699;28;20025;-67
2022/03/07 14:32:18;;;;;;;1.70;1.60;;;;;;;;;;5072360;28;20020;-66
2022/03/07 14:34:44;;;;;;;1.50;1.40;;;;;;;;;;5072444;28;20464;-67
2022/03/07 14:37:10;;;;;;;1.88;1.58;;;;;;;;;;5072300;28;20041;-67
2022/03/07 14:39:36;;;;;;;1.30;1.20;;;;;;;;;;5054678;28;20033;-67